createdAt,value
2022-12-12T00:00:54.074Z,88.87
2022-12-12T00:03:21.149Z,89.11
2022-12-12T00:05:48.405Z,89.22
2022-12-12T00:08:15.276Z,89.45
2022-12-12T00:10:42.027Z,89.29
2022-12-12T00:13:08.727Z,89.27
2022-12-12T00:15:35.581Z,89.34
2022-12-12T00:18:02.299Z,89.24
2022-12-12T00:20:29.080Z,89.25
2022-12-12T00:22:56.044Z,89.26
2022-12-12T00:25:22.903Z,89.47
2022-12-12T00:27:49.654Z,89.49
2022-12-12T00:30:16.499Z,89.20
2022-12-12T00:32:43.196Z,89.43
2022-12-12T00:35:10.323Z,89.89
2022-12-12T00:37:37.316Z,90.10
2022-12-12T00:40:06.310Z,90.38
2022-12-12T00:42:33.133Z,90.42
2022-12-12T00:45:00.041Z,90.58
2022-12-12T00:47:26.756Z,90.92
2022-12-12T00:49:53.507Z,90.83
2022-12-12T00:52:20.438Z,91.12
2022-12-12T00:54:47.258Z,91.10
2022-12-12T00:57:13.998Z,90.92
2022-12-12T00:59:40.835Z,90.87
2022-12-12T01:02:07.700Z,90.72
2022-12-12T01:04:34.512Z,90.48
2022-12-12T01:07:01.593Z,90.30
2022-12-12T01:09:28.275Z,90.35
2022-12-12T01:11:55.012Z,90.28
2022-12-12T01:14:22.071Z,90.40
2022-12-12T01:16:48.823Z,90.43
2022-12-12T01:19:15.881Z,90.37
2022-12-12T01:21:42.962Z,90.15
2022-12-12T01:24:09.685Z,90.18
2022-12-12T01:26:37.724Z,90.54
2022-12-12T01:29:04.624Z,90.54
2022-12-12T01:31:31.463Z,90.67
2022-12-12T01:33:58.202Z,90.71
2022-12-12T01:36:25.118Z,90.58
2022-12-12T01:38:54.403Z,91.09
2022-12-12T01:41:21.483Z,91.13
2022-12-12T01:43:48.447Z,91.69
2022-12-12T01:46:39.184Z,91.55
2022-12-12T01:49:16.332Z,91.91
2022-12-12T01:51:44.756Z,92.13
2022-12-12T01:54:19.301Z,92.24
2022-12-12T01:56:47.880Z,92.52
2022-12-12T01:59:17.740Z,93.16
2022-12-12T02:01:45.090Z,93.20
2022-12-12T02:04:13.170Z,93.32
2022-12-12T02:06:41.107Z,93.77
2022-12-12T02:09:12.516Z,93.95
2022-12-12T02:11:48.784Z,94.00
2022-12-12T02:14:20.786Z,94.34
2022-12-12T02:17:08.934Z,94.26
2022-12-12T02:20:04.537Z,94.51
2022-12-12T02:22:34.214Z,95.01
2022-12-12T02:25:39.769Z,94.86
2022-12-12T02:28:27.962Z,95.13
2022-12-12T02:31:26.981Z,95.51
2022-12-12T02:34:24.335Z,96.04
2022-12-12T02:37:01.545Z,96.40
2022-12-12T02:39:45.218Z,96.53
2022-12-12T02:42:26.440Z,96.66
2022-12-12T02:45:07.657Z,97.32
2022-12-12T02:47:42.936Z,97.29
2022-12-12T02:50:15.304Z,97.37
2022-12-12T02:52:47.620Z,97.75
2022-12-12T02:55:15.487Z,97.65
2022-12-12T02:57:42.451Z,97.83
2022-12-12T03:00:15.942Z,98.24
2022-12-12T03:03:17.692Z,98.45
2022-12-12T03:06:14.689Z,98.51
2022-12-12T03:09:10.778Z,98.63
2022-12-12T03:11:57.741Z,98.50
2022-12-12T03:14:38.968Z,98.83
2022-12-12T03:17:15.491Z,99.02
2022-12-12T03:19:48.883Z,98.89
2022-12-12T03:22:30.483Z,98.90
2022-12-12T03:25:16.306Z,98.60
2022-12-12T03:27:57.720Z,98.53
2022-12-12T03:30:24.944Z,98.82
2022-12-12T03:33:04.074Z,98.79
2022-12-12T03:35:37.692Z,99.04
2022-12-12T03:38:14.280Z,99.18
2022-12-12T03:40:58.412Z,98.93
2022-12-12T03:43:38.070Z,98.77
2022-12-12T03:46:25.765Z,98.69
2022-12-12T03:49:05.535Z,99.44
2022-12-12T03:51:39.886Z,99.54
2022-12-12T03:54:19.264Z,99.21
2022-12-12T03:57:21.087Z,99.21
2022-12-12T03:59:55.509Z,99.98
2022-12-12T04:02:25.037Z,99.86
2022-12-12T04:05:02.191Z,99.73
2022-12-12T04:07:41.760Z,99.56
2022-12-12T04:10:28.872Z,99.59
2022-12-12T04:13:32.251Z,99.38
2022-12-12T04:16:15.642Z,99.69
2022-12-12T04:19:37.336Z,99.65
2022-12-12T04:22:27.419Z,100.00
2022-12-12T04:25:12.929Z,99.69
2022-12-12T04:27:46.019Z,99.99
2022-12-12T04:30:15.572Z,100.00
2022-12-12T04:32:51.335Z,100.00
2022-12-12T04:35:24.052Z,100.00
2022-12-12T04:38:01.049Z,100.00
2022-12-12T04:40:31.760Z,100.00
2022-12-12T04:43:03.714Z,100.00
2022-12-12T04:45:39.423Z,100.00
2022-12-12T04:48:09.447Z,100.00
2022-12-12T04:50:37.471Z,100.00
2022-12-12T04:53:13.414Z,100.00
2022-12-12T04:55:48.319Z,100.00
2022-12-12T04:58:15.674Z,100.00
2022-12-12T05:00:56.020Z,100.00
2022-12-12T05:03:33.823Z,100.00
2022-12-12T05:06:05.880Z,100.00
2022-12-12T05:08:45.293Z,100.00
2022-12-12T05:11:12.770Z,100.00
2022-12-12T05:13:42.870Z,100.00
2022-12-12T05:16:29.788Z,100.00
2022-12-12T05:18:56.632Z,100.00
2022-12-12T05:21:23.327Z,100.00
2022-12-12T05:23:50.426Z,100.00
2022-12-12T05:26:26.962Z,100.00
2022-12-12T05:28:54.444Z,100.00
2022-12-12T05:31:21.876Z,100.00
2022-12-12T05:33:49.178Z,100.00
2022-12-12T05:36:16.699Z,100.00
2022-12-12T05:38:43.421Z,100.00
2022-12-12T05:41:10.479Z,100.00
2022-12-12T05:43:39.121Z,100.00
2022-12-12T05:46:06.776Z,100.00
2022-12-12T05:48:34.185Z,100.00
2022-12-12T05:51:02.858Z,100.00
2022-12-12T05:53:30.797Z,100.00
2022-12-12T05:55:57.611Z,100.00
2022-12-12T05:58:24.490Z,100.00
2022-12-12T06:00:52.189Z,100.00
2022-12-12T06:03:20.756Z,100.00
2022-12-12T06:05:47.522Z,100.00
2022-12-12T06:08:14.704Z,100.00
2022-12-12T06:10:42.819Z,100.00
2022-12-12T06:13:09.701Z,100.00
2022-12-12T06:15:40.388Z,100.00
2022-12-12T06:18:08.324Z,100.00
2022-12-12T06:20:36.067Z,100.00
2022-12-12T06:23:02.770Z,100.00
2022-12-12T06:25:29.756Z,100.00
2022-12-12T06:27:57.949Z,100.00
2022-12-12T06:30:26.173Z,100.00
2022-12-12T06:32:52.885Z,100.00
2022-12-12T06:35:19.718Z,100.00
2022-12-12T06:37:48.636Z,100.00
2022-12-12T06:40:15.391Z,100.00
2022-12-12T06:42:47.889Z,100.00
2022-12-12T06:45:16.048Z,100.00
2022-12-12T06:47:42.950Z,100.00
2022-12-12T06:50:09.915Z,100.00
2022-12-12T06:52:36.691Z,100.00
2022-12-12T06:55:04.164Z,100.00
2022-12-12T06:57:31.172Z,100.00
2022-12-12T06:59:58.019Z,100.00
2022-12-12T07:02:29.628Z,100.00
2022-12-12T07:04:58.017Z,100.00
2022-12-12T07:07:24.810Z,100.00
2022-12-12T07:09:51.575Z,100.00
2022-12-12T07:12:18.368Z,100.00
2022-12-12T07:14:45.056Z,100.00
2022-12-12T07:17:11.823Z,100.00
2022-12-12T07:19:38.639Z,100.00
2022-12-12T07:22:09.658Z,100.00
2022-12-12T07:24:36.829Z,100.00
2022-12-12T07:27:03.865Z,100.00
2022-12-12T07:29:30.756Z,100.00
2022-12-12T07:31:57.700Z,100.00
2022-12-12T07:34:24.587Z,100.00
2022-12-12T07:36:51.585Z,100.00
2022-12-12T07:39:20.955Z,100.00
2022-12-12T07:41:48.390Z,100.00
2022-12-12T07:44:16.668Z,100.00
2022-12-12T07:46:43.462Z,100.00
2022-12-12T07:49:10.214Z,100.00
2022-12-12T07:51:40.962Z,100.00
2022-12-12T07:54:10.916Z,100.00
2022-12-12T07:56:37.637Z,100.00
2022-12-12T07:59:04.479Z,100.00
2022-12-12T08:01:31.301Z,100.00
2022-12-12T08:03:58.965Z,100.00
2022-12-12T08:06:26.117Z,100.00
2022-12-12T08:08:53.796Z,100.00
2022-12-12T08:11:23.402Z,100.00
2022-12-12T08:13:51.047Z,100.00
2022-12-12T08:16:26.896Z,100.00
2022-12-12T08:18:55.537Z,100.00
2022-12-12T08:21:26.191Z,100.00
2022-12-12T08:23:58.377Z,100.00
2022-12-12T08:26:26.363Z,100.00
2022-12-12T08:28:53.457Z,100.00
2022-12-12T08:31:21.455Z,100.00
2022-12-12T08:33:50.860Z,100.00
2022-12-12T08:36:21.295Z,100.00
2022-12-12T08:38:48.808Z,100.00
2022-12-12T08:41:16.448Z,100.00
2022-12-12T08:43:44.290Z,100.00
2022-12-12T08:46:17.486Z,100.00
2022-12-12T08:48:46.036Z,100.00
2022-12-12T08:51:13.635Z,100.00
2022-12-12T08:53:40.468Z,100.00
2022-12-12T08:56:09.260Z,100.00
2022-12-12T08:58:36.040Z,100.00
2022-12-12T09:01:03.837Z,100.00
2022-12-12T09:03:30.662Z,100.00
2022-12-12T09:05:57.456Z,100.00
2022-12-12T09:08:24.674Z,100.00
2022-12-12T09:10:51.681Z,100.00
2022-12-12T09:13:18.494Z,100.00
2022-12-12T09:15:45.517Z,100.00
2022-12-12T09:18:12.586Z,100.00
2022-12-12T09:20:39.703Z,100.00
2022-12-12T09:23:06.498Z,100.00
2022-12-12T09:25:33.488Z,100.00
2022-12-12T09:28:00.235Z,100.00
2022-12-12T09:30:26.954Z,100.00
2022-12-12T09:32:53.899Z,100.00
2022-12-12T09:35:20.654Z,100.00
2022-12-12T09:37:47.447Z,100.00
2022-12-12T09:40:28.139Z,100.00
2022-12-12T09:42:55.609Z,100.00
2022-12-12T09:45:22.899Z,100.00
2022-12-12T09:48:00.720Z,100.00
2022-12-12T09:50:32.616Z,100.00
2022-12-12T09:53:03.395Z,100.00
2022-12-12T09:55:39.065Z,100.00
2022-12-12T09:58:17.912Z,100.00
2022-12-12T10:00:52.843Z,100.00
2022-12-12T10:03:42.490Z,100.00
2022-12-12T10:06:36.535Z,100.00
2022-12-12T10:09:13.318Z,100.00
2022-12-12T10:11:50.885Z,100.00
2022-12-12T10:14:42.479Z,100.00
2022-12-12T10:17:16.523Z,100.00
2022-12-12T10:20:06.420Z,100.00
2022-12-12T10:22:33.191Z,100.00
2022-12-12T10:25:25.724Z,100.00
2022-12-12T10:28:00.154Z,100.00
2022-12-12T10:30:32.649Z,100.00
2022-12-12T10:33:14.102Z,100.00
2022-12-12T10:36:06.433Z,100.00
2022-12-12T10:38:45.149Z,100.00
2022-12-12T10:41:23.053Z,100.00
2022-12-12T10:43:59.892Z,100.00
2022-12-12T10:47:02.195Z,100.00
2022-12-12T10:49:29.845Z,100.00
2022-12-12T10:52:00.072Z,100.00
2022-12-12T10:54:28.691Z,100.00
2022-12-12T10:57:16.540Z,100.00
2022-12-12T10:59:52.847Z,100.00
2022-12-12T11:02:34.868Z,100.00
2022-12-12T11:05:06.439Z,100.00
2022-12-12T11:07:45.147Z,100.00
2022-12-12T11:10:34.854Z,100.00
2022-12-12T11:13:21.900Z,100.00
2022-12-12T11:16:17.371Z,100.00
2022-12-12T11:19:01.893Z,100.00
2022-12-12T11:21:31.912Z,100.00
2022-12-12T11:23:59.974Z,100.00
2022-12-12T11:26:29.221Z,100.00
2022-12-12T11:29:02.753Z,100.00
2022-12-12T11:31:35.208Z,100.00
2022-12-12T11:34:06.524Z,100.00
2022-12-12T11:36:39.118Z,100.00
2022-12-12T11:39:22.301Z,100.00
2022-12-12T11:41:58.355Z,100.00
2022-12-12T11:44:28.392Z,100.00
2022-12-12T11:46:54.959Z,100.00
2022-12-12T11:49:21.687Z,100.00
2022-12-12T11:51:49.356Z,100.00
2022-12-12T11:54:21.888Z,100.00
2022-12-12T11:57:06.300Z,100.00
2022-12-12T11:59:48.852Z,100.00
2022-12-12T12:03:03.906Z,100.00
2022-12-12T12:05:55.497Z,100.00
2022-12-12T12:08:48.573Z,100.00
2022-12-12T12:11:43.151Z,100.00
2022-12-12T12:14:09.933Z,100.00
2022-12-12T12:17:00.823Z,100.00
2022-12-12T12:19:51.882Z,100.00
2022-12-12T12:23:07.763Z,100.00
2022-12-12T12:25:43.501Z,100.00
2022-12-12T12:28:36.874Z,100.00
2022-12-12T12:31:33.197Z,100.00
2022-12-12T12:34:21.094Z,100.00
2022-12-12T12:37:09.525Z,100.00
2022-12-12T12:40:02.234Z,99.95
2022-12-12T12:42:53.503Z,99.82
2022-12-12T12:45:25.978Z,100.00
2022-12-12T12:48:03.466Z,100.00
2022-12-12T12:50:43.254Z,100.00
2022-12-12T12:53:21.963Z,100.00
2022-12-12T12:55:53.190Z,100.00
2022-12-12T12:58:28.597Z,100.00
2022-12-12T13:01:21.236Z,100.00
2022-12-12T13:04:08.348Z,100.00
2022-12-12T13:07:04.326Z,99.94
2022-12-12T13:09:57.727Z,99.86
2022-12-12T13:12:38.668Z,99.86
2022-12-12T13:15:14.738Z,100.00
2022-12-12T13:18:15.432Z,100.00
2022-12-12T13:20:52.657Z,100.00
2022-12-12T13:23:37.360Z,100.00
2022-12-12T13:26:13.014Z,100.00
2022-12-12T13:28:45.938Z,99.97
2022-12-12T13:31:39.492Z,100.00
2022-12-12T13:34:08.648Z,100.00
2022-12-12T13:36:39.599Z,99.32
2022-12-12T13:39:09.229Z,99.51
2022-12-12T13:42:21.248Z,98.75
2022-12-12T13:44:49.592Z,98.40
2022-12-12T13:47:22.272Z,98.42
2022-12-12T13:50:19.235Z,98.00
2022-12-12T13:53:08.653Z,98.84
2022-12-12T13:55:36.635Z,98.75
2022-12-12T13:58:18.155Z,98.33
2022-12-12T14:00:45.250Z,98.38
2022-12-12T14:03:12.017Z,98.40
2022-12-12T14:05:44.730Z,98.02
2022-12-12T14:08:11.667Z,98.48
2022-12-12T14:10:53.710Z,98.45
2022-12-12T14:13:23.867Z,98.61
2022-12-12T14:16:04.825Z,98.76
2022-12-12T14:18:49.680Z,98.71
2022-12-12T14:21:18.928Z,98.99
2022-12-12T14:23:51.073Z,99.28
2022-12-12T14:26:29.775Z,99.33
2022-12-12T14:29:18.390Z,99.02
2022-12-12T14:32:13.485Z,98.86
2022-12-12T14:35:13.963Z,99.44
2022-12-12T14:38:00.067Z,99.45
2022-12-12T14:40:38.008Z,99.58
2022-12-12T14:43:21.570Z,99.23
2022-12-12T14:45:55.770Z,99.78
2022-12-12T14:48:35.050Z,99.78
2022-12-12T14:51:13.156Z,99.63
2022-12-12T14:53:52.292Z,99.59
2022-12-12T14:56:21.052Z,99.76
2022-12-12T14:58:50.860Z,99.81
2022-12-12T15:01:32.608Z,99.47
2022-12-12T15:04:02.119Z,99.57
2022-12-12T15:06:43.387Z,99.66
2022-12-12T15:09:20.332Z,99.19
2022-12-12T15:11:48.623Z,99.29
2022-12-12T15:14:23.237Z,99.29
2022-12-12T15:16:53.016Z,99.15
2022-12-12T15:19:25.740Z,99.42
2022-12-12T15:21:52.734Z,99.30
2022-12-12T15:24:22.982Z,99.42
2022-12-12T15:26:52.204Z,98.93
2022-12-12T15:29:23.320Z,98.52
2022-12-12T15:31:57.554Z,98.72
2022-12-12T15:34:41.247Z,98.29
2022-12-12T15:37:29.020Z,98.38
2022-12-12T15:40:10.875Z,98.40
2022-12-12T15:42:40.655Z,98.36
2022-12-12T15:45:15.544Z,98.07
2022-12-12T15:47:42.566Z,98.12
2022-12-12T15:50:25.280Z,97.83
2022-12-12T15:53:05.878Z,97.76
2022-12-12T15:55:33.890Z,97.77
2022-12-12T15:58:01.113Z,97.85
2022-12-12T16:00:32.709Z,98.11
2022-12-12T16:03:00.775Z,98.23
2022-12-12T16:05:34.192Z,98.13
2022-12-12T16:08:33.687Z,97.97
2022-12-12T16:11:03.000Z,98.29
2022-12-12T16:13:40.803Z,97.95
2022-12-12T16:16:56.203Z,98.26
2022-12-12T16:19:26.453Z,98.41
2022-12-12T16:21:54.238Z,98.54
2022-12-12T16:24:25.397Z,98.46
2022-12-12T16:26:56.866Z,98.29
2022-12-12T16:29:23.560Z,98.41
2022-12-12T16:31:50.411Z,98.45
2022-12-12T16:34:18.029Z,98.38
2022-12-12T16:36:44.738Z,98.45
2022-12-12T16:39:13.056Z,98.26
2022-12-12T16:41:40.257Z,98.22
2022-12-12T16:44:06.955Z,98.46
2022-12-12T16:46:33.744Z,98.61
2022-12-12T16:49:04.847Z,98.85
2022-12-12T16:51:34.279Z,98.81
2022-12-12T16:54:01.380Z,99.03
2022-12-12T16:56:28.307Z,99.63
2022-12-12T16:58:56.338Z,99.35
2022-12-12T17:01:23.150Z,99.90
2022-12-12T17:03:50.149Z,99.80
2022-12-12T17:06:17.084Z,99.77
2022-12-12T17:08:43.838Z,99.54
2022-12-12T17:11:11.546Z,99.83
2022-12-12T17:13:43.129Z,99.52
2022-12-12T17:16:09.970Z,99.53
2022-12-12T17:18:36.990Z,99.39
2022-12-12T17:21:03.903Z,99.27
2022-12-12T17:23:30.673Z,99.10
2022-12-12T17:26:03.576Z,98.98
2022-12-12T17:28:34.123Z,98.86
2022-12-12T17:31:01.407Z,98.87
2022-12-12T17:33:28.455Z,98.79
2022-12-12T17:36:01.177Z,98.56
2022-12-12T17:38:28.217Z,98.71
2022-12-12T17:40:56.860Z,98.72
2022-12-12T17:43:26.558Z,98.56
2022-12-12T17:45:58.508Z,98.55
2022-12-12T17:48:28.430Z,98.39
2022-12-12T17:51:03.948Z,98.63
2022-12-12T17:53:32.565Z,98.38
2022-12-12T17:56:01.175Z,98.42
2022-12-12T17:58:39.300Z,98.37
2022-12-12T18:01:16.769Z,98.27
2022-12-12T18:03:44.316Z,98.49
2022-12-12T18:06:11.923Z,98.46
2022-12-12T18:08:40.767Z,98.34
2022-12-12T18:11:09.501Z,98.17
2022-12-12T18:13:36.603Z,98.86
2022-12-12T18:16:03.465Z,98.98
2022-12-12T18:18:30.311Z,98.65
2022-12-12T18:21:02.618Z,98.65
2022-12-12T18:23:29.305Z,99.13
2022-12-12T18:25:56.449Z,99.17
2022-12-12T18:28:23.128Z,99.22
2022-12-12T18:30:50.400Z,99.20
2022-12-12T18:33:17.361Z,99.56
2022-12-12T18:35:44.164Z,99.37
2022-12-12T18:38:10.855Z,99.47
2022-12-12T18:40:39.435Z,99.54
2022-12-12T18:43:06.295Z,99.50
2022-12-12T18:45:36.859Z,99.40
2022-12-12T18:48:03.882Z,99.30
2022-12-12T18:50:30.569Z,99.22
2022-12-12T18:52:57.263Z,99.49
2022-12-12T18:55:26.289Z,99.38
2022-12-12T18:57:53.053Z,99.48
2022-12-12T19:00:20.519Z,99.41
2022-12-12T19:02:47.347Z,99.67
2022-12-12T19:05:14.525Z,99.58
2022-12-12T19:07:42.176Z,99.68
2022-12-12T19:10:09.218Z,99.62
2022-12-12T19:12:36.480Z,99.69
2022-12-12T19:15:18.771Z,99.46
2022-12-12T19:17:45.660Z,99.63
2022-12-12T19:20:13.174Z,99.85
2022-12-12T19:22:45.500Z,99.80
2022-12-12T19:25:14.411Z,99.67
2022-12-12T19:27:41.265Z,99.24
2022-12-12T19:30:08.542Z,99.41
2022-12-12T19:32:35.460Z,99.55
2022-12-12T19:35:02.406Z,99.54
2022-12-12T19:37:29.263Z,99.29
2022-12-12T19:39:57.141Z,99.54
2022-12-12T19:42:23.832Z,98.99
2022-12-12T19:44:50.537Z,99.11
2022-12-12T19:47:18.991Z,99.10
2022-12-12T19:49:45.728Z,99.48
2022-12-12T19:52:14.420Z,99.51
2022-12-12T19:54:41.516Z,99.13
2022-12-12T19:57:08.214Z,99.37
2022-12-12T19:59:35.092Z,99.05
2022-12-12T20:02:01.931Z,99.36
2022-12-12T20:04:30.355Z,99.38
2022-12-12T20:06:57.433Z,99.23
2022-12-12T20:09:29.602Z,99.38
2022-12-12T20:11:59.458Z,99.49
2022-12-12T20:14:32.851Z,99.46
2022-12-12T20:17:00.166Z,99.11
2022-12-12T20:19:27.593Z,99.41
2022-12-12T20:22:03.544Z,99.43
2022-12-12T20:24:33.528Z,99.23
2022-12-12T20:27:03.295Z,99.45
2022-12-12T20:29:30.729Z,99.63
2022-12-12T20:31:59.937Z,99.21
2022-12-12T20:34:28.074Z,99.32
2022-12-12T20:36:58.869Z,99.10
2022-12-12T20:39:26.230Z,99.22
2022-12-12T20:41:54.169Z,98.81
2022-12-12T20:44:22.663Z,99.04
2022-12-12T20:46:49.443Z,99.32
2022-12-12T20:49:19.351Z,98.76
2022-12-12T20:51:55.281Z,98.82
2022-12-12T20:54:24.617Z,99.20
2022-12-12T20:56:52.609Z,99.36
2022-12-12T20:59:19.538Z,99.12
2022-12-12T21:01:47.760Z,98.88
2022-12-12T21:04:15.382Z,99.06
2022-12-12T21:06:44.755Z,98.73
2022-12-12T21:09:15.092Z,98.97
2022-12-12T21:11:44.635Z,98.95
2022-12-12T21:14:12.362Z,99.13
2022-12-12T21:16:40.040Z,98.78
2022-12-12T21:19:11.765Z,99.11
2022-12-12T21:21:41.330Z,98.95
2022-12-12T21:24:08.379Z,99.25
2022-12-12T21:26:35.294Z,99.10
2022-12-12T21:29:02.631Z,98.88
2022-12-12T21:31:32.031Z,99.24
2022-12-12T21:33:59.823Z,99.19
2022-12-12T21:36:28.219Z,99.07
2022-12-12T21:38:57.092Z,98.77
2022-12-12T21:41:25.461Z,99.09
2022-12-12T21:43:52.816Z,99.11
2022-12-12T21:46:26.182Z,98.73
2022-12-12T21:49:12.516Z,99.26
2022-12-12T21:51:40.507Z,99.43
2022-12-12T21:54:08.400Z,99.21
2022-12-12T21:56:35.628Z,99.28
2022-12-12T21:59:03.494Z,98.85
2022-12-12T22:01:32.415Z,99.00
2022-12-12T22:04:00.211Z,98.96
2022-12-12T22:06:29.700Z,99.09
2022-12-12T22:08:57.825Z,99.20
2022-12-12T22:11:40.212Z,99.16
2022-12-12T22:14:11.916Z,99.42
2022-12-12T22:16:38.898Z,99.30
2022-12-12T22:19:09.888Z,99.15
2022-12-12T22:21:37.087Z,99.22
2022-12-12T22:24:04.069Z,99.09
2022-12-12T22:26:42.205Z,99.00
2022-12-12T22:29:12.333Z,99.02
2022-12-12T22:31:40.844Z,98.92
2022-12-12T22:34:14.672Z,98.58
2022-12-12T22:36:42.033Z,98.88
2022-12-12T22:39:15.378Z,98.97
2022-12-12T22:41:42.134Z,99.17
2022-12-12T22:44:13.231Z,99.07
2022-12-12T22:46:43.863Z,99.04
2022-12-12T22:49:14.608Z,98.75
2022-12-12T22:51:42.960Z,98.95
2022-12-12T22:54:09.784Z,99.00
2022-12-12T22:56:38.270Z,98.90
2022-12-12T22:59:06.161Z,98.66
2022-12-12T23:01:33.617Z,98.87
2022-12-12T23:04:00.521Z,99.07
2022-12-12T23:06:35.460Z,98.97
2022-12-12T23:09:06.247Z,99.18
2022-12-12T23:11:34.339Z,99.13
2022-12-12T23:14:04.661Z,99.21
2022-12-12T23:16:31.746Z,99.36
2022-12-12T23:18:59.178Z,99.49
2022-12-12T23:21:27.172Z,99.59
2022-12-12T23:23:55.441Z,99.44
2022-12-12T23:26:25.220Z,99.47
2022-12-12T23:28:52.365Z,99.74
2022-12-12T23:31:22.357Z,99.57
2022-12-12T23:33:51.878Z,100.00
2022-12-12T23:36:18.763Z,100.00
2022-12-12T23:38:45.592Z,100.00
2022-12-12T23:41:14.480Z,99.93
2022-12-12T23:43:42.071Z,100.00
2022-12-12T23:46:28.183Z,100.00
2022-12-12T23:49:07.440Z,100.00
2022-12-12T23:51:39.779Z,100.00
2022-12-12T23:54:10.437Z,99.97
2022-12-12T23:56:38.162Z,100.00
2022-12-12T23:59:04.908Z,100.00
